createdAt,value
2022-11-25T00:00:20.927Z,7.22
2022-11-25T00:05:22.312Z,4.80
2022-11-25T00:10:23.685Z,5.93
2022-11-25T00:15:25.064Z,5.28
2022-11-25T00:20:26.437Z,5.28
2022-11-25T00:25:27.835Z,4.75
2022-11-25T00:30:29.361Z,3.95
2022-11-25T00:35:30.729Z,4.47
2022-11-25T00:40:32.100Z,3.85
2022-11-25T00:45:33.569Z,4.53
2022-11-25T00:50:35.083Z,4.65
2022-11-25T00:55:56.475Z,4.80
2022-11-25T01:01:01.763Z,4.57
2022-11-25T01:06:04.231Z,4.40
2022-11-25T01:11:07.931Z,4.75
2022-11-25T01:16:11.746Z,5.57
2022-11-25T01:21:17.463Z,3.97
2022-11-25T01:26:20.444Z,6.72
2022-11-25T01:31:22.560Z,4.32
2022-11-25T01:36:23.980Z,4.28
2022-11-25T01:41:29.514Z,6.18
2022-11-25T01:46:35.283Z,5.43
2022-11-25T01:51:50.856Z,4.72
2022-11-25T01:56:56.135Z,5.82
2022-11-25T02:01:57.517Z,8.68
2022-11-25T02:07:02.011Z,5.45
2022-11-25T02:12:03.481Z,4.40
2022-11-25T02:17:04.866Z,4.38
2022-11-25T02:22:06.720Z,5.18
2022-11-25T02:27:08.103Z,4.65
2022-11-25T02:32:09.495Z,4.25
2022-11-25T02:37:10.911Z,5.32
2022-11-25T02:42:12.286Z,4.07
2022-11-25T02:47:13.659Z,5.30
2022-11-25T02:52:15.144Z,4.60
2022-11-25T02:57:16.536Z,4.40
2022-11-25T03:02:17.983Z,5.38
2022-11-25T03:07:19.430Z,4.65
2022-11-25T03:12:21.011Z,4.82
2022-11-25T03:17:22.404Z,3.55
2022-11-25T03:22:23.779Z,3.72
2022-11-25T03:27:27.994Z,3.72
2022-11-25T03:32:31.699Z,3.38
2022-11-25T03:37:33.063Z,3.78
2022-11-25T03:42:34.455Z,4.05
2022-11-25T03:47:35.827Z,3.95
2022-11-25T03:52:37.232Z,4.45
2022-11-25T03:57:38.620Z,4.05
2022-11-25T04:02:40.042Z,4.43
2022-11-25T04:07:41.500Z,4.72
2022-11-25T04:12:49.057Z,5.25
2022-11-25T04:17:50.434Z,4.22
2022-11-25T04:22:51.803Z,4.03
2022-11-25T04:27:53.194Z,3.28
2022-11-25T04:32:54.575Z,3.65
2022-11-25T04:37:55.932Z,3.70
2022-11-25T04:43:03.461Z,4.32
2022-11-25T04:48:07.534Z,3.53
2022-11-25T04:53:08.935Z,4.10
2022-11-25T04:58:11.161Z,4.88
2022-11-25T05:03:12.520Z,5.13
2022-11-25T05:08:13.880Z,5.63
2022-11-25T05:13:15.250Z,4.57
2022-11-25T05:18:16.640Z,4.10
2022-11-25T05:23:18.013Z,3.42
2022-11-25T05:28:19.371Z,3.05
2022-11-25T05:33:20.904Z,3.42
2022-11-25T05:38:22.268Z,5.05
2022-11-25T05:43:23.630Z,6.30
2022-11-25T05:48:25.196Z,5.55
2022-11-25T05:53:26.736Z,5.32
2022-11-25T05:58:28.615Z,4.22
2022-11-25T06:03:30.198Z,3.95
2022-11-25T06:08:31.600Z,3.80
2022-11-25T06:13:34.155Z,4.10
2022-11-25T06:18:36.395Z,3.05
2022-11-25T06:23:37.969Z,3.20
2022-11-25T06:28:39.383Z,9.20
2022-11-25T06:33:40.924Z,23.77
2022-11-25T06:38:45.755Z,13.30
2022-11-25T06:43:47.116Z,15.30
2022-11-25T06:48:48.500Z,9.77
2022-11-25T06:53:49.895Z,12.75
2022-11-25T06:58:51.686Z,18.50
2022-11-25T07:03:58.775Z,14.77
2022-11-25T07:09:00.187Z,14.27
2022-11-25T07:14:03.026Z,11.27
2022-11-25T07:19:04.392Z,14.57
2022-11-25T07:24:06.889Z,15.13
2022-11-25T07:29:29.318Z,17.75
2022-11-25T07:34:31.749Z,18.73
2022-11-25T07:39:33.140Z,19.65
2022-11-25T07:44:34.545Z,16.33
2022-11-25T07:49:36.146Z,19.88
2022-11-25T07:54:37.765Z,21.55
2022-11-25T07:59:41.210Z,20.30
2022-11-25T08:04:42.575Z,30.58
2022-11-25T08:09:43.951Z,31.08
2022-11-25T08:14:48.353Z,34.75
2022-11-25T08:19:49.835Z,35.75
2022-11-25T08:24:51.204Z,22.10
2022-11-25T08:29:52.567Z,28.90
2022-11-25T08:34:53.931Z,35.30
2022-11-25T08:39:56.026Z,37.80
2022-11-25T08:44:57.707Z,27.08
2022-11-25T08:49:59.063Z,18.20
2022-11-25T08:55:01.001Z,28.13
2022-11-25T09:00:03.493Z,19.70
2022-11-25T09:05:05.120Z,24.98
2022-11-25T09:10:08.324Z,18.55
2022-11-25T09:15:10.416Z,16.92
2022-11-25T09:20:12.114Z,15.60
2022-11-25T09:25:13.495Z,12.27
2022-11-25T09:30:14.998Z,18.27
2022-11-25T09:35:16.839Z,17.02
2022-11-25T09:40:35.212Z,13.65
2022-11-25T09:46:15.285Z,13.95
2022-11-25T09:51:24.838Z,10.55
2022-11-25T09:56:33.568Z,9.82
2022-11-25T10:01:38.567Z,14.00
2022-11-25T10:06:55.490Z,10.17
2022-11-25T10:12:00.446Z,11.90
2022-11-25T10:17:20.487Z,7.72
2022-11-25T10:22:26.675Z,10.43
2022-11-25T10:27:46.067Z,7.28
2022-11-25T10:33:11.597Z,8.32
2022-11-25T10:38:18.934Z,10.23
2022-11-25T10:43:20.807Z,11.50
2022-11-25T10:48:40.000Z,8.48
2022-11-25T10:54:10.677Z,7.53
2022-11-25T10:59:23.138Z,7.65
2022-11-25T11:04:24.520Z,5.18
2022-11-25T11:09:35.715Z,8.93
2022-11-25T11:14:37.397Z,7.78
2022-11-25T11:19:38.955Z,7.43
2022-11-25T11:24:42.357Z,5.50
2022-11-25T11:29:43.722Z,6.38
2022-11-25T11:34:50.745Z,10.95
2022-11-25T11:40:38.427Z,9.00
2022-11-25T11:45:49.030Z,9.30
2022-11-25T11:50:51.072Z,5.72
2022-11-25T11:56:35.940Z,9.55
2022-11-25T12:02:00.361Z,8.73
2022-11-25T12:07:06.161Z,10.63
2022-11-25T12:12:09.271Z,6.85
2022-11-25T12:17:17.788Z,7.25
2022-11-25T12:22:23.555Z,5.30
2022-11-25T12:27:34.961Z,10.18
2022-11-25T12:32:59.897Z,4.53
2022-11-25T12:38:04.208Z,7.20
2022-11-25T12:43:28.664Z,5.32
2022-11-25T12:48:30.043Z,6.68
2022-11-25T12:53:35.633Z,4.82
2022-11-25T12:58:53.330Z,5.65
2022-11-25T13:04:23.343Z,7.28
2022-11-25T13:09:46.556Z,7.13
2022-11-25T13:15:19.240Z,8.05
2022-11-25T13:20:23.746Z,5.88
2022-11-25T13:25:25.788Z,6.03
2022-11-25T13:30:33.324Z,5.80
2022-11-25T13:35:35.572Z,4.80
2022-11-25T13:40:38.392Z,4.00
2022-11-25T13:45:42.878Z,23.00
2022-11-25T13:51:11.941Z,18.35
2022-11-25T13:56:21.929Z,13.98
2022-11-25T14:01:29.510Z,16.83
2022-11-25T14:06:39.929Z,12.90
2022-11-25T14:11:59.855Z,9.27
2022-11-25T14:17:04.526Z,12.80
2022-11-25T14:22:32.859Z,5.53
2022-11-25T14:27:34.288Z,8.93
2022-11-25T14:32:57.513Z,8.40
2022-11-25T14:38:12.764Z,6.68
2022-11-25T14:43:22.552Z,7.38
2022-11-25T14:48:25.841Z,6.85
2022-11-25T14:53:27.812Z,5.22
2022-11-25T14:58:29.283Z,6.80
2022-11-25T15:03:30.728Z,6.72
2022-11-25T15:08:58.157Z,5.78
2022-11-25T15:14:01.823Z,6.68
2022-11-25T15:19:04.811Z,8.82
2022-11-25T15:24:06.423Z,6.32
2022-11-25T15:29:12.002Z,6.25
2022-11-25T15:34:13.989Z,5.70
2022-11-25T15:39:21.680Z,6.18
2022-11-25T15:44:27.572Z,5.70
2022-11-25T15:54:32.969Z,6.78
2022-11-25T15:59:55.434Z,6.43
2022-11-25T16:05:16.489Z,7.55
2022-11-25T16:10:56.402Z,5.97
2022-11-25T16:16:01.782Z,5.35
2022-11-25T16:21:05.035Z,7.25
2022-11-25T16:26:12.315Z,7.28
2022-11-25T16:31:15.495Z,7.47
2022-11-25T16:36:16.943Z,8.38
2022-11-25T16:41:24.189Z,6.60
2022-11-25T16:46:25.760Z,8.13
2022-11-25T16:51:27.294Z,7.40
2022-11-25T16:56:28.663Z,8.18
2022-11-25T17:01:30.154Z,7.05
2022-11-25T17:06:31.715Z,6.95
2022-11-25T17:11:35.363Z,9.40
2022-11-25T17:16:36.754Z,10.13
2022-11-25T17:21:38.152Z,7.05
2022-11-25T17:26:40.281Z,7.85
2022-11-25T17:31:41.723Z,7.90
2022-11-25T17:36:43.688Z,7.53
2022-11-25T17:41:46.288Z,8.02
2022-11-25T17:46:47.673Z,8.02
2022-11-25T17:51:49.096Z,6.70
2022-11-25T17:56:52.582Z,5.45
2022-11-25T18:01:55.899Z,6.68
2022-11-25T18:06:57.541Z,6.88
2022-11-25T18:11:59.523Z,7.38
2022-11-25T18:17:02.021Z,7.65
2022-11-25T18:22:17.958Z,7.30
2022-11-25T18:32:23.321Z,6.30
2022-11-25T18:37:25.123Z,8.68
2022-11-25T18:42:26.941Z,6.60
2022-11-25T18:47:28.360Z,7.47
2022-11-25T18:52:29.762Z,7.13
2022-11-25T18:57:31.139Z,7.90
2022-11-25T19:02:32.600Z,6.07
2022-11-25T19:07:34.074Z,10.38
2022-11-25T19:12:35.524Z,7.63
2022-11-25T19:17:37.031Z,8.38
2022-11-25T19:22:38.402Z,6.72
2022-11-25T19:27:42.554Z,7.30
2022-11-25T19:32:44.897Z,8.07
2022-11-25T19:37:46.271Z,7.32
2022-11-25T19:42:48.451Z,6.35
2022-11-25T19:47:50.413Z,8.40
2022-11-25T19:52:51.844Z,7.45
2022-11-25T19:57:54.361Z,8.68
2022-11-25T20:02:56.148Z,10.02
2022-11-25T20:07:57.615Z,7.50
2022-11-25T20:12:59.132Z,7.20
2022-11-25T20:18:00.634Z,7.07
2022-11-25T20:23:16.559Z,7.38
2022-11-25T20:28:19.657Z,6.32
2022-11-25T20:33:24.252Z,5.40
2022-11-25T20:38:27.548Z,5.10
2022-11-25T20:43:33.310Z,8.43
2022-11-25T20:48:37.276Z,4.80
2022-11-25T20:53:38.684Z,5.00
2022-11-25T20:58:40.063Z,4.25
2022-11-25T21:03:42.497Z,5.15
2022-11-25T21:08:45.244Z,4.30
2022-11-25T21:13:46.817Z,4.47
2022-11-25T21:18:48.207Z,4.28
2022-11-25T21:23:49.632Z,4.45
2022-11-25T21:28:51.844Z,3.13
2022-11-25T21:33:55.939Z,3.22
2022-11-25T21:39:02.055Z,3.80
2022-11-25T21:44:04.339Z,4.60
2022-11-25T21:49:10.492Z,4.15
2022-11-25T21:54:11.868Z,3.25
2022-11-25T21:59:17.236Z,3.38
2022-11-25T22:04:20.360Z,2.45
2022-11-25T22:09:22.084Z,4.35
2022-11-25T22:14:29.559Z,3.30
2022-11-25T22:19:30.928Z,3.47
2022-11-25T22:24:32.312Z,2.45
2022-11-25T22:29:34.495Z,3.40
2022-11-25T22:34:36.125Z,3.92
2022-11-25T22:39:37.716Z,3.92
2022-11-25T22:44:46.639Z,2.80
2022-11-25T22:49:48.231Z,3.25
2022-11-25T22:54:49.805Z,3.22
2022-11-25T22:59:51.182Z,3.38
2022-11-25T23:04:53.520Z,3.05
2022-11-25T23:09:56.482Z,3.83
2022-11-25T23:14:57.907Z,3.90
2022-11-25T23:19:59.267Z,2.47
2022-11-25T23:25:00.647Z,3.55
2022-11-25T23:30:02.040Z,2.15
2022-11-25T23:35:03.488Z,2.38
2022-11-25T23:40:05.332Z,2.58
2022-11-25T23:45:07.411Z,2.65
2022-11-25T23:50:23.778Z,3.08
2022-11-25T23:55:27.476Z,2.60
